Time;durP1;ratioP1;P1;durP2;ratioP2;P2;SDS_P1;SDS_P2;PMS_P1;PMS_P2;Temp;Humidity;BMP_temperature;BMP_pressure;BME280_temperature;BME280_humidity;BME280_pressure;Samples;Min_cycle;Max_cycle;Signal;HPM_P1;HPM_P2
2023/08/18 00:00:11;;;;;;;31.42;19.50;;;17.60;99.90;;;;;;5067089;28;20017;-74
2023/08/18 00:02:37;;;;;;;26.98;19.73;;;17.60;99.90;;;;;;5069295;28;20032;-74
2023/08/18 00:05:03;;;;;;;29.30;19.95;;;17.50;99.90;;;;;;5065097;28;20025;-74
2023/08/18 00:07:29;;;;;;;29.00;19.45;;;17.60;99.90;;;;;;5071028;28;20025;-74
2023/08/18 00:09:54;;;;;;;30.58;18.20;;;17.60;99.90;;;;;;5068531;28;20115;-74
2023/08/18 00:12:20;;;;;;;27.05;18.98;;;17.60;99.90;;;;;;5069245;28;20027;-74
2023/08/18 00:14:45;;;;;;;41.88;20.23;;;17.60;99.90;;;;;;5070670;28;20036;-74
2023/08/18 00:17:11;;;;;;;30.17;19.63;;;17.50;99.90;;;;;;5067606;28;20031;-74
2023/08/18 00:19:37;;;;;;;35.83;20.10;;;17.50;99.90;;;;;;5070695;28;20119;-74
2023/08/18 00:22:02;;;;;;;32.90;20.27;;;17.40;99.90;;;;;;5069391;28;20081;-74
2023/08/18 00:24:28;;;;;;;29.77;19.67;;;17.40;99.90;;;;;;5068501;28;20036;-74
2023/08/18 00:26:53;;;;;;;23.35;17.27;;;17.40;99.90;;;;;;5068836;28;20028;-74
2023/08/18 00:29:19;;;;;;;26.10;17.05;;;17.30;99.90;;;;;;5070201;28;20013;-74
2023/08/18 00:31:45;;;;;;;23.38;17.65;;;17.30;99.90;;;;;;5067135;28;20546;-74
2023/08/18 00:34:11;;;;;;;23.17;17.38;;;17.30;99.90;;;;;;5069430;28;20025;-74
2023/08/18 00:36:36;;;;;;;24.08;17.73;;;17.30;99.90;;;;;;5070518;28;20163;-74
2023/08/18 00:39:02;;;;;;;20.70;17.02;;;17.30;99.90;;;;;;5070847;28;20383;-74
2023/08/18 00:41:28;;;;;;;24.35;17.98;;;17.30;99.90;;;;;;5067394;28;20028;-74
2023/08/18 00:43:54;;;;;;;29.50;21.00;;;17.40;99.90;;;;;;5069617;28;20375;-74
2023/08/18 00:46:20;;;;;;;29.55;18.95;;;17.40;99.90;;;;;;5069852;28;20108;-73
2023/08/18 00:48:47;;;;;;;25.45;17.25;;;17.40;99.90;;;;;;5069432;28;20020;-73
2023/08/18 00:51:13;;;;;;;28.20;19.45;;;17.40;99.90;;;;;;5070699;28;20024;-73
2023/08/18 00:53:43;;;;;;;27.35;21.08;;;17.50;99.90;;;;;;5069421;28;20028;-73
2023/08/18 00:56:09;;;;;;;32.72;21.00;;;17.50;99.90;;;;;;5067354;28;20403;-73
2023/08/18 00:58:38;;;;;;;27.33;20.58;;;17.50;99.90;;;;;;5069763;28;20032;-73
2023/08/18 01:01:04;;;;;;;32.30;21.10;;;17.50;99.90;;;;;;5073458;28;20495;-73
2023/08/18 01:03:30;;;;;;;33.97;22.30;;;17.50;99.90;;;;;;5072863;28;20039;-73
2023/08/18 01:05:56;;;;;;;29.02;20.65;;;17.50;99.90;;;;;;5063369;28;20036;-73
2023/08/18 01:08:22;;;;;;;34.42;20.25;;;17.40;99.90;;;;;;5074254;28;20027;-73
2023/08/18 01:11:26;;;;;;;31.85;22.15;;;17.40;99.90;;;;;;5073102;28;20032;-73
2023/08/18 01:14:08;;;;;;;30.77;21.90;;;17.40;99.90;;;;;;5072101;28;20482;-73
2023/08/18 01:16:35;;;;;;;31.40;22.00;;;17.40;99.90;;;;;;5073227;28;20565;-73
2023/08/18 01:19:01;;;;;;;28.15;20.33;;;17.40;99.90;;;;;;5074027;28;20028;-73
2023/08/18 01:21:26;;;;;;;58.17;21.65;;;17.40;99.90;;;;;;5070435;28;20091;-73
2023/08/18 01:23:52;;;;;;;29.63;19.75;;;17.40;99.90;;;;;;5073067;28;20742;-73
2023/08/18 01:26:17;;;;;;;37.50;19.95;;;17.30;99.90;;;;;;5070157;28;20491;-73
2023/08/18 01:28:44;;;;;;;29.15;19.60;;;17.30;99.90;;;;;;5069936;28;20029;-73
2023/08/18 01:31:15;;;;;;;30.30;19.15;;;17.30;99.90;;;;;;5073837;28;20028;-73
2023/08/18 01:33:48;;;;;;;25.77;18.10;;;17.30;99.90;;;;;;5073966;28;20028;-73
2023/08/18 01:36:19;;;;;;;24.02;16.92;;;17.40;99.90;;;;;;5065920;28;20032;-73
2023/08/18 01:38:48;;;;;;;20.67;15.43;;;17.40;99.90;;;;;;5072088;28;20044;-73
2023/08/18 01:41:17;;;;;;;24.05;15.82;;;17.40;99.90;;;;;;5073348;28;20146;-73
2023/08/18 01:43:43;;;;;;;20.48;16.50;;;17.50;99.90;;;;;;5072993;28;20029;-73
2023/08/18 01:46:08;;;;;;;22.77;15.27;;;17.50;99.90;;;;;;5063598;28;20178;-73
2023/08/18 01:48:34;;;;;;;24.45;17.10;;;17.50;99.90;;;;;;5072784;28;20032;-73
2023/08/18 01:50:59;;;;;;;29.00;18.98;;;17.40;99.90;;;;;;5070180;28;20060;-73
2023/08/18 01:53:25;;;;;;;31.80;19.75;;;17.40;99.90;;;;;;5068321;28;20020;-73
2023/08/18 01:55:50;;;;;;;31.20;18.55;;;17.40;99.90;;;;;;5070074;28;20048;-73
2023/08/18 01:58:16;;;;;;;29.33;20.05;;;17.40;99.90;;;;;;5073763;28;20029;-73
2023/08/18 02:00:41;;;;;;;35.53;19.70;;;17.30;99.90;;;;;;5069309;28;20495;-73
2023/08/18 02:03:08;;;;;;;30.13;18.42;;;17.30;99.90;;;;;;5071943;28;20035;-73
2023/08/18 02:05:37;;;;;;;27.08;19.35;;;17.30;99.90;;;;;;5069144;28;20036;-73
2023/08/18 02:08:04;;;;;;;31.38;19.08;;;17.20;99.90;;;;;;5073038;28;20017;-73
2023/08/18 02:10:29;;;;;;;25.52;16.50;;;17.20;99.90;;;;;;5069236;28;20051;-73
2023/08/18 02:12:55;;;;;;;31.05;19.10;;;17.20;99.90;;;;;;5073512;28;20483;-73
2023/08/18 02:15:20;;;;;;;24.25;16.63;;;17.30;99.90;;;;;;5069858;28;20032;-73
2023/08/18 02:17:46;;;;;;;23.67;17.52;;;17.20;99.90;;;;;;5071099;28;20021;-73
2023/08/18 02:20:11;;;;;;;24.60;17.63;;;17.30;99.90;;;;;;5073689;28;20023;-74
2023/08/18 02:22:37;;;;;;;26.70;19.23;;;17.20;99.90;;;;;;5071505;28;20016;-74
2023/08/18 02:25:02;;;;;;;26.02;17.40;;;17.20;99.90;;;;;;5068730;28;20099;-74
2023/08/18 02:27:28;;;;;;;25.15;16.75;;;17.20;99.90;;;;;;5070981;28;20454;-74
2023/08/18 02:29:55;;;;;;;30.35;16.88;;;17.20;99.90;;;;;;5070410;28;20021;-74
2023/08/18 02:32:20;;;;;;;26.10;17.30;;;17.30;99.90;;;;;;5071407;28;20025;-74
2023/08/18 02:34:46;;;;;;;21.35;16.17;;;17.30;99.90;;;;;;5071626;28;20379;-74
2023/08/18 02:37:12;;;;;;;26.13;15.68;;;17.30;99.90;;;;;;5072563;28;20181;-74
2023/08/18 02:39:38;;;;;;;22.05;15.98;;;17.20;99.90;;;;;;5073140;28;20032;-74
2023/08/18 02:42:05;;;;;;;26.10;16.92;;;17.30;99.90;;;;;;5071159;28;20032;-74
2023/08/18 02:44:31;;;;;;;22.58;16.00;;;17.30;99.90;;;;;;5072530;28;20031;-74
2023/08/18 02:46:56;;;;;;;26.35;15.82;;;17.20;99.90;;;;;;5068423;28;20483;-74
2023/08/18 02:49:22;;;;;;;21.27;14.82;;;17.20;99.90;;;;;;5068124;28;20039;-74
2023/08/18 02:51:48;;;;;;;18.63;12.70;;;17.20;99.90;;;;;;5069915;28;20029;-74
2023/08/18 02:54:13;;;;;;;17.05;12.85;;;17.20;99.90;;;;;;5071726;28;20085;-74
2023/08/18 02:56:39;;;;;;;19.13;13.35;;;17.20;99.90;;;;;;5071000;28;20039;-74
2023/08/18 02:59:04;;;;;;;18.27;14.43;;;17.10;99.90;;;;;;5068932;28;20036;-74
2023/08/18 03:01:30;;;;;;;19.65;12.05;;;17.10;99.90;;;;;;5068656;28;20107;-74
2023/08/18 03:03:55;;;;;;;17.77;12.82;;;17.10;99.90;;;;;;5071723;28;20394;-74
2023/08/18 03:06:21;;;;;;;13.85;12.32;;;17.10;99.90;;;;;;5071266;28;20025;-75
2023/08/18 03:08:46;;;;;;;16.45;12.73;;;17.10;99.90;;;;;;5069270;28;20024;-74
2023/08/18 03:11:12;;;;;;;17.70;12.80;;;17.20;99.90;;;;;;5070923;28;20060;-74
2023/08/18 03:13:37;;;;;;;15.75;12.05;;;17.20;99.90;;;;;;5071581;28;20020;-74
2023/08/18 03:16:04;;;;;;;20.35;13.02;;;17.30;99.90;;;;;;5067822;28;20043;-74
2023/08/18 03:18:30;;;;;;;18.00;13.77;;;17.20;99.90;;;;;;5070705;28;20035;-74
2023/08/18 03:21:00;;;;;;;13.48;11.02;;;17.20;99.90;;;;;;5071929;28;20078;-74
2023/08/18 03:23:26;;;;;;;17.00;12.60;;;17.10;99.90;;;;;;5066118;28;20028;-74
2023/08/18 03:25:59;;;;;;;15.48;11.90;;;17.10;99.90;;;;;;5071590;28;20028;-74
2023/08/18 03:28:24;;;;;;;14.55;12.07;;;17.20;99.90;;;;;;5069653;28;20033;-74
2023/08/18 03:30:50;;;;;;;12.40;10.63;;;17.20;99.90;;;;;;5067741;28;20023;-74
2023/08/18 03:33:15;;;;;;;13.98;10.77;;;17.20;99.90;;;;;;5071069;28;20027;-74
2023/08/18 03:35:41;;;;;;;17.45;10.98;;;17.20;99.90;;;;;;5071450;28;20111;-74
2023/08/18 03:38:06;;;;;;;15.30;10.77;;;17.10;99.90;;;;;;5068638;28;20735;-74
2023/08/18 03:40:32;;;;;;;14.18;11.73;;;17.10;99.90;;;;;;5071942;28;20054;-74
2023/08/18 03:42:58;;;;;;;18.00;10.63;;;17.10;99.90;;;;;;5070402;28;20039;-74
2023/08/18 03:45:23;;;;;;;15.25;11.50;;;17.10;99.90;;;;;;5065340;28;20040;-74
2023/08/18 03:47:50;;;;;;;13.52;10.25;;;17.10;99.90;;;;;;5069096;28;20020;-74
2023/08/18 03:50:16;;;;;;;15.48;11.15;;;17.10;99.90;;;;;;5071766;28;20033;-74
2023/08/18 03:52:42;;;;;;;15.38;10.52;;;17.10;99.90;;;;;;5063583;28;20114;-74
2023/08/18 03:55:09;;;;;;;13.73;9.32;;;17.10;99.90;;;;;;5062195;28;20060;-74
2023/08/18 03:57:35;;;;;;;13.60;9.20;;;17.10;99.90;;;;;;5068537;28;20043;-74
2023/08/18 04:00:00;;;;;;;14.55;9.40;;;17.00;99.90;;;;;;5069779;28;20025;-74
2023/08/18 04:02:27;;;;;;;14.25;9.70;;;17.00;99.90;;;;;;5070834;28;20032;-74
2023/08/18 04:04:54;;;;;;;11.43;9.23;;;17.00;99.90;;;;;;5068800;28;20115;-74
2023/08/18 04:07:19;;;;;;;11.38;9.02;;;17.00;99.90;;;;;;5058900;28;20032;-74
2023/08/18 04:09:45;;;;;;;11.70;9.90;;;17.00;99.90;;;;;;5063227;28;20028;-74
2023/08/18 04:12:10;;;;;;;15.40;10.02;;;17.00;99.90;;;;;;5068481;28;20028;-74
2023/08/18 04:14:36;;;;;;;11.95;9.93;;;17.10;99.90;;;;;;5070584;28;20017;-74
2023/08/18 04:17:02;;;;;;;9.90;8.48;;;17.10;99.90;;;;;;5069844;28;20021;-74
2023/08/18 04:19:27;;;;;;;15.50;9.88;;;17.10;99.90;;;;;;5068586;28;20471;-74
2023/08/18 04:21:53;;;;;;;12.45;9.25;;;17.10;99.90;;;;;;5067275;28;20153;-74
2023/08/18 04:24:18;;;;;;;11.23;9.43;;;17.00;99.90;;;;;;5069370;28;20032;-74
2023/08/18 04:26:44;;;;;;;13.82;11.20;;;17.10;99.90;;;;;;5066092;28;20033;-74
2023/08/18 04:29:09;;;;;;;16.17;11.40;;;17.10;99.90;;;;;;5068710;28;20020;-74
2023/08/18 04:31:35;;;;;;;23.67;10.13;;;17.20;99.90;;;;;;5068471;28;20031;-74
2023/08/18 04:34:00;;;;;;;12.30;9.32;;;17.20;99.90;;;;;;5069046;28;20017;-74
2023/08/18 04:36:26;;;;;;;13.05;10.13;;;17.10;99.90;;;;;;5070205;28;20025;-74
2023/08/18 04:38:53;;;;;;;10.20;9.10;;;17.10;99.90;;;;;;5068066;28;20397;-74
2023/08/18 04:41:19;;;;;;;15.05;9.43;;;17.00;99.90;;;;;;5065001;28;20036;-74
2023/08/18 04:43:44;;;;;;;15.52;10.10;;;17.00;99.90;;;;;;5069034;28;20505;-74
2023/08/18 04:46:10;;;;;;;11.20;9.50;;;17.00;99.90;;;;;;5063519;28;20033;-74
2023/08/18 04:48:35;;;;;;;10.93;9.02;;;17.00;99.90;;;;;;5069792;28;20486;-74
2023/08/18 04:51:01;;;;;;;16.25;9.98;;;17.00;99.90;;;;;;5068484;28;20036;-74
2023/08/18 04:53:26;;;;;;;14.60;10.40;;;17.10;99.90;;;;;;5068531;28;20033;-73
2023/08/18 04:55:52;;;;;;;12.77;8.95;;;17.20;99.90;;;;;;5061558;28;20038;-73
2023/08/18 04:58:17;;;;;;;19.38;14.95;;;17.30;99.90;;;;;;5068380;28;20037;-73
2023/08/18 05:00:43;;;;;;;17.05;10.05;;;17.30;99.90;;;;;;5069085;28;20081;-73
2023/08/18 05:03:09;;;;;;;12.52;9.82;;;17.30;99.90;;;;;;5063791;28;20035;-73
2023/08/18 05:05:40;;;;;;;18.50;15.73;;;17.30;99.90;;;;;;5077792;28;20039;-73
2023/08/18 05:08:06;;;;;;;14.15;11.25;;;17.30;99.90;;;;;;5067385;28;20028;-73
2023/08/18 05:10:31;;;;;;;22.35;13.20;;;17.40;99.90;;;;;;5068016;28;20108;-73
2023/08/18 05:12:57;;;;;;;19.60;13.13;;;17.40;99.90;;;;;;5069308;28;20024;-74
2023/08/18 05:15:23;;;;;;;15.60;11.07;;;17.40;99.90;;;;;;5067973;28;20045;-74
2023/08/18 05:17:49;;;;;;;13.40;10.55;;;17.50;99.90;;;;;;5070322;28;20021;-74
2023/08/18 05:20:15;;;;;;;13.90;10.55;;;17.50;99.90;;;;;;5061070;28;20507;-74
2023/08/18 05:22:41;;;;;;;14.52;10.48;;;17.60;99.90;;;;;;5069430;28;20031;-74
2023/08/18 05:25:08;;;;;;;13.40;9.98;;;17.60;99.90;;;;;;5067933;28;20112;-74
2023/08/18 05:27:34;;;;;;;21.83;11.00;;;17.60;99.90;;;;;;5068108;28;20448;-74
2023/08/18 05:30:00;;;;;;;10.95;9.85;;;17.70;99.90;;;;;;5068267;28;20028;-73
2023/08/18 05:32:25;;;;;;;13.23;10.18;;;17.70;99.90;;;;;;5062905;28;20607;-73
2023/08/18 05:34:57;;;;;;;14.63;10.63;;;17.70;99.90;;;;;;5065712;28;20035;-72
2023/08/18 05:37:23;;;;;;;14.60;9.90;;;17.70;99.90;;;;;;5077481;22;20072;-72
2023/08/18 05:39:49;;;;;;;16.17;10.98;;;17.80;99.90;;;;;;5029493;28;20057;-72
2023/08/18 05:42:15;;;;;;;15.38;10.70;;;17.80;99.90;;;;;;5028631;28;20045;-72
2023/08/18 05:44:42;;;;;;;14.82;11.90;;;17.90;99.90;;;;;;5028194;28;20100;-72
2023/08/18 05:47:08;;;;;;;18.58;14.60;;;18.10;99.90;;;;;;5036229;28;20025;-72
2023/08/18 05:49:33;;;;;;;15.50;13.65;;;18.10;99.90;;;;;;5027162;28;20109;-73
2023/08/18 05:51:59;;;;;;;15.20;11.55;;;18.20;99.90;;;;;;5034040;28;20105;-72
2023/08/18 05:54:26;;;;;;;26.10;21.00;;;18.20;99.90;;;;;;5029441;28;20025;-74
2023/08/18 05:56:51;;;;;;;13.68;11.10;;;18.30;99.90;;;;;;5029600;28;20045;-71
2023/08/18 05:59:17;;;;;;;17.80;14.27;;;18.30;99.90;;;;;;5031990;28;20088;-72
2023/08/18 06:01:42;;;;;;;17.58;13.55;;;18.20;99.90;;;;;;5030451;28;20033;-72
2023/08/18 06:04:08;;;;;;;14.75;13.05;;;18.20;99.90;;;;;;5029819;28;20029;-72
2023/08/18 06:06:35;;;;;;;16.20;13.68;;;18.30;99.90;;;;;;5037390;28;20307;-72
2023/08/18 06:09:01;;;;;;;15.27;13.50;;;18.30;99.90;;;;;;5032740;28;20022;-73
2023/08/18 06:11:27;;;;;;;15.88;9.88;;;18.30;99.90;;;;;;5038928;28;20395;-71
2023/08/18 06:13:53;;;;;;;13.98;11.27;;;18.20;99.90;;;;;;5032747;28;20379;-72
2023/08/18 06:16:18;;;;;;;11.77;10.65;;;18.20;99.90;;;;;;5033037;28;20079;-72
2023/08/18 06:18:44;;;;;;;14.48;11.80;;;18.30;99.90;;;;;;5031300;28;20048;-72
2023/08/18 06:21:09;;;;;;;15.55;12.77;;;18.20;99.90;;;;;;5035638;28;20052;-72
2023/08/18 06:23:36;;;;;;;23.08;17.23;;;18.20;99.90;;;;;;5045026;28;20175;-72
2023/08/18 06:26:01;;;;;;;16.40;13.55;;;18.30;99.90;;;;;;5031157;28;20396;-71
2023/08/18 06:28:27;;;;;;;16.80;13.10;;;18.40;99.90;;;;;;5042107;28;20017;-71
2023/08/18 06:30:52;;;;;;;23.02;13.40;;;18.50;99.90;;;;;;5031979;28;20614;-73
2023/08/18 06:33:18;;;;;;;18.33;11.57;;;18.60;99.90;;;;;;5032372;28;20025;-72
2023/08/18 06:35:43;;;;;;;20.25;13.25;;;18.70;99.90;;;;;;5029007;28;20029;-72
2023/08/18 06:38:09;;;;;;;15.18;11.35;;;18.90;99.90;;;;;;5043526;28;20029;-73
2023/08/18 06:40:34;;;;;;;20.20;12.75;;;19.00;99.90;;;;;;5035748;28;20100;-73
2023/08/18 06:43:00;;;;;;;19.85;13.02;;;19.10;99.90;;;;;;5032689;28;20119;-72
2023/08/18 06:45:25;;;;;;;14.07;10.45;;;19.10;99.90;;;;;;5041959;28;20169;-72
2023/08/18 06:47:51;;;;;;;13.30;10.80;;;19.20;99.90;;;;;;5032250;28;20052;-72
2023/08/18 06:50:17;;;;;;;14.23;10.02;;;19.10;99.90;;;;;;5034171;28;20033;-72
2023/08/18 06:52:43;;;;;;;15.55;11.57;;;19.00;99.90;;;;;;5032375;28;20021;-71
2023/08/18 06:55:13;;;;;;;16.27;11.00;;;19.00;99.90;;;;;;5037723;28;20124;-72
2023/08/18 06:57:39;;;;;;;14.45;10.52;;;19.10;99.90;;;;;;5030186;28;20025;-70
2023/08/18 07:00:06;;;;;;;12.35;10.40;;;19.20;99.90;;;;;;5030070;28;20387;-71
2023/08/18 07:02:32;;;;;;;17.23;12.23;;;19.20;99.90;;;;;;5039528;28;20293;-70
2023/08/18 07:04:57;;;;;;;16.15;10.57;;;19.20;99.90;;;;;;5029749;28;20160;-71
2023/08/18 07:07:23;;;;;;;11.73;10.43;;;19.30;99.90;;;;;;5030139;28;20610;-71
2023/08/18 07:09:49;;;;;;;14.02;10.60;;;19.30;99.90;;;;;;5028613;28;20025;-70
2023/08/18 07:12:16;;;;;;;14.15;12.70;;;19.40;99.90;;;;;;5030857;28;20041;-70
2023/08/18 07:14:42;;;;;;;16.00;12.15;;;19.40;99.90;;;;;;5031322;28;20442;-70
2023/08/18 07:17:07;;;;;;;14.27;11.98;;;19.40;99.90;;;;;;5032336;28;20017;-70
2023/08/18 07:19:33;;;;;;;11.07;9.98;;;19.40;99.90;;;;;;5030462;28;20032;-70
2023/08/18 07:21:59;;;;;;;21.63;11.32;;;19.50;99.90;;;;;;5031373;28;20430;-70
2023/08/18 07:24:25;;;;;;;23.00;11.80;;;19.50;99.90;;;;;;5029807;28;20033;-70
2023/08/18 07:26:51;;;;;;;16.33;10.45;;;19.50;99.90;;;;;;5029310;28;20388;-70
2023/08/18 07:29:16;;;;;;;12.85;10.00;;;19.50;99.90;;;;;;5030247;28;20108;-70
2023/08/18 07:31:42;;;;;;;12.43;11.13;;;19.60;99.90;;;;;;5030710;28;20068;-70
2023/08/18 07:34:08;;;;;;;17.20;12.48;;;19.50;99.90;;;;;;5028933;28;20026;-70
2023/08/18 07:36:35;;;;;;;15.50;12.70;;;19.50;99.90;;;;;;5033962;28;20040;-70
2023/08/18 07:39:01;;;;;;;15.15;11.88;;;19.60;99.90;;;;;;5028903;28;20155;-70
2023/08/18 07:41:26;;;;;;;14.80;13.05;;;19.60;99.90;;;;;;5029214;28;20034;-70
2023/08/18 07:43:52;;;;;;;14.40;12.68;;;19.60;99.90;;;;;;5028984;28;20030;-70
2023/08/18 07:46:17;;;;;;;15.10;13.02;;;19.70;99.90;;;;;;5027605;28;20087;-71
2023/08/18 07:48:44;;;;;;;12.07;10.82;;;19.90;99.90;;;;;;5028581;28;20557;-71
2023/08/18 07:51:10;;;;;;;12.82;11.50;;;19.90;99.90;;;;;;5042547;28;20032;-70
2023/08/18 07:53:35;;;;;;;13.93;12.40;;;19.90;99.90;;;;;;5030188;28;20029;-69
2023/08/18 07:56:02;;;;;;;12.52;10.15;;;20.00;99.90;;;;;;5028111;28;20034;-70
2023/08/18 07:58:27;;;;;;;12.02;10.88;;;20.00;99.90;;;;;;5030168;28;20028;-69
2023/08/18 08:00:55;;;;;;;11.82;10.63;;;20.10;99.90;;;;;;5038131;28;20033;-69
2023/08/18 08:03:21;;;;;;;13.40;11.52;;;20.30;99.90;;;;;;5029845;28;20083;-69
2023/08/18 08:05:47;;;;;;;13.38;11.98;;;20.50;99.90;;;;;;5039650;28;20442;-69
2023/08/18 08:08:12;;;;;;;12.32;11.15;;;20.70;99.90;;;;;;5039890;28;20097;-68
2023/08/18 08:10:38;;;;;;;13.40;11.63;;;20.90;99.90;;;;;;5029995;28;20025;-69
2023/08/18 08:13:03;;;;;;;17.20;11.88;;;21.00;99.90;;;;;;5030344;28;20394;-69
2023/08/18 08:15:29;;;;;;;17.92;11.45;;;20.90;99.90;;;;;;5028320;28;20026;-69
2023/08/18 08:17:56;;;;;;;12.50;11.25;;;20.80;99.90;;;;;;5036222;28;20016;-69
2023/08/18 08:20:21;;;;;;;13.15;11.75;;;20.80;99.90;;;;;;5027100;28;20053;-70
2023/08/18 08:22:49;;;;;;;11.82;10.68;;;20.80;99.90;;;;;;5033595;28;20056;-70
2023/08/18 08:25:16;;;;;;;14.57;12.95;;;20.70;99.90;;;;;;5030497;28;20041;-69
2023/08/18 08:27:42;;;;;;;12.75;11.35;;;20.80;99.90;;;;;;5039868;28;20037;-71
2023/08/18 08:30:11;;;;;;;14.35;11.18;;;20.80;99.90;;;;;;5040619;28;20017;-73
2023/08/18 08:32:36;;;;;;;12.52;11.10;;;20.80;99.90;;;;;;5034066;28;20021;-72
2023/08/18 08:35:02;;;;;;;11.95;10.02;;;20.80;99.90;;;;;;5029452;28;20185;-71
2023/08/18 08:37:28;;;;;;;13.13;11.80;;;20.90;99.90;;;;;;5031621;28;20028;-71
2023/08/18 08:39:54;;;;;;;18.38;13.13;;;21.00;99.90;;;;;;5047688;28;20056;-71
2023/08/18 08:42:20;;;;;;;15.02;13.52;;;21.10;99.90;;;;;;5029828;28;20057;-71
2023/08/18 08:44:45;;;;;;;13.63;11.45;;;21.10;99.90;;;;;;5028801;28;20034;-72
2023/08/18 08:47:11;;;;;;;15.10;13.07;;;21.10;99.90;;;;;;5024449;28;20460;-74
2023/08/18 08:49:41;;;;;;;14.98;12.60;;;21.10;99.90;;;;;;5029191;28;20082;-74
2023/08/18 08:52:08;;;;;;;15.55;11.82;;;21.00;99.90;;;;;;5045201;28;20021;-74
2023/08/18 08:54:56;;;;;;;13.38;11.73;;;21.20;99.90;;;;;;5045259;28;20429;-74
2023/08/18 08:57:23;;;;;;;14.38;12.88;;;21.30;99.90;;;;;;5044153;28;20156;-74
2023/08/18 08:59:49;;;;;;;12.90;10.95;;;21.30;99.90;;;;;;5045573;28;20056;-74
2023/08/18 09:02:15;;;;;;;16.00;12.40;;;21.50;99.90;;;;;;5048789;28;20452;-74
2023/08/18 09:04:40;;;;;;;13.35;12.05;;;21.70;99.90;;;;;;5053230;28;20037;-74
2023/08/18 09:07:09;;;;;;;13.05;11.75;;;21.70;99.90;;;;;;5048561;28;20055;-74
2023/08/18 09:09:35;;;;;;;13.02;11.63;;;21.90;99.90;;;;;;5044632;28;20027;-74
2023/08/18 09:12:05;;;;;;;13.13;11.82;;;21.90;99.90;;;;;;5063340;28;20081;-73
2023/08/18 09:14:34;;;;;;;12.40;11.18;;;21.90;99.90;;;;;;5055895;28;20029;-73
2023/08/18 09:16:59;;;;;;;12.57;11.38;;;22.00;99.90;;;;;;5051319;28;20028;-75
2023/08/18 09:19:25;;;;;;;11.05;9.95;;;22.20;99.90;;;;;;5039258;28;20022;-74
2023/08/18 09:21:51;;;;;;;11.98;10.68;;;22.30;99.90;;;;;;5047071;28;20029;-75
2023/08/18 09:24:19;;;;;;;11.98;10.77;;;22.40;99.90;;;;;;5044863;28;20032;-75
2023/08/18 09:26:45;;;;;;;13.20;11.70;;;22.40;99.90;;;;;;5047787;28;20018;-74
2023/08/18 09:29:10;;;;;;;13.20;11.90;;;22.40;99.90;;;;;;5041138;28;20029;-75
2023/08/18 09:31:36;;;;;;;14.30;11.98;;;22.50;99.90;;;;;;5050501;28;20025;-75
2023/08/18 09:34:02;;;;;;;10.93;9.82;;;22.40;99.90;;;;;;5049677;28;20091;-75
2023/08/18 09:36:30;;;;;;;11.43;9.90;;;22.40;99.90;;;;;;5046466;28;20024;-74
2023/08/18 09:38:56;;;;;;;11.45;10.18;;;22.50;99.90;;;;;;5054095;28;20037;-75
2023/08/18 09:41:21;;;;;;;13.90;10.13;;;22.70;99.90;;;;;;5046440;28;20039;-75
2023/08/18 09:43:48;;;;;;;13.75;11.57;;;22.80;99.90;;;;;;5033753;28;20020;-74
2023/08/18 09:46:16;;;;;;;14.05;12.52;;;23.00;99.90;;;;;;5042457;28;20029;-75
2023/08/18 09:48:46;;;;;;;13.80;9.00;;;23.10;99.90;;;;;;5050633;28;20047;-74
2023/08/18 09:51:12;;;;;;;11.15;9.15;;;23.10;99.90;;;;;;5052910;28;20040;-74
2023/08/18 09:53:45;;;;;;;10.57;9.57;;;23.20;99.90;;;;;;5049546;28;20036;-74
2023/08/18 09:56:14;;;;;;;20.33;18.05;;;23.20;99.90;;;;;;5045568;28;20020;-74
2023/08/18 09:59:13;;;;;;;20.13;15.02;;;23.30;99.90;;;;;;5040869;28;20029;-74
2023/08/18 10:01:42;;;;;;;12.57;10.25;;;23.50;99.90;;;;;;5037605;28;20081;-74
2023/08/18 10:04:09;;;;;;;14.07;11.90;;;23.60;99.90;;;;;;5046902;28;20038;-74
2023/08/18 10:06:38;;;;;;;14.57;11.18;;;23.80;99.90;;;;;;5053055;28;20149;-74
2023/08/18 10:09:05;;;;;;;10.88;9.13;;;23.90;99.90;;;;;;5053929;28;20086;-74
2023/08/18 10:11:33;;;;;;;9.75;8.65;;;23.90;99.90;;;;;;5045411;28;20025;-74
2023/08/18 10:13:59;;;;;;;10.93;9.15;;;24.10;99.90;;;;;;5043983;28;20017;-74
2023/08/18 10:16:26;;;;;;;9.38;8.43;;;24.10;99.90;;;;;;5044778;28;20026;-73
2023/08/18 10:18:56;;;;;;;10.40;9.02;;;24.10;99.90;;;;;;5035612;28;20499;-74
2023/08/18 10:21:22;;;;;;;12.35;10.48;;;24.10;99.90;;;;;;5051100;28;20107;-74
2023/08/18 10:23:48;;;;;;;8.90;8.02;;;24.30;99.90;;;;;;5041529;28;20056;-74
2023/08/18 10:26:16;;;;;;;7.65;6.90;;;24.20;99.90;;;;;;5053216;28;20510;-75
2023/08/18 10:28:41;;;;;;;8.27;7.55;;;24.20;99.90;;;;;;5049236;28;20097;-74
2023/08/18 10:31:09;;;;;;;8.30;6.78;;;24.20;99.90;;;;;;5047734;28;20594;-74
2023/08/18 10:33:42;;;;;;;10.05;8.50;;;24.40;99.90;;;;;;5041909;28;20026;-74
2023/08/18 10:36:07;;;;;;;10.40;7.82;;;24.50;99.90;;;;;;5032743;28;20112;-74
2023/08/18 10:38:34;;;;;;;11.85;10.27;;;24.60;99.90;;;;;;5051068;28;20120;-74
2023/08/18 10:41:00;;;;;;;9.13;7.68;;;24.70;99.90;;;;;;5053240;28;20032;-74
2023/08/18 10:43:27;;;;;;;12.27;10.90;;;25.00;99.90;;;;;;5043503;28;20451;-74
2023/08/18 10:45:59;;;;;;;7.85;7.15;;;25.10;99.90;;;;;;5035176;28;20381;-74
2023/08/18 10:48:29;;;;;;;8.40;6.72;;;25.20;99.90;;;;;;5044019;28;20022;-74
2023/08/18 10:50:55;;;;;;;6.65;6.05;;;25.30;99.90;;;;;;5041898;28;20021;-74
2023/08/18 10:53:21;;;;;;;12.93;7.82;;;25.40;99.90;;;;;;5040501;28;20017;-74
2023/08/18 10:55:46;;;;;;;12.10;10.52;;;25.30;99.90;;;;;;5043559;28;20105;-74
2023/08/18 10:58:14;;;;;;;11.95;7.70;;;25.40;99.90;;;;;;5045466;28;20017;-74
2023/08/18 11:00:40;;;;;;;10.05;7.65;;;25.50;99.90;;;;;;5040794;28;20061;-74
2023/08/18 11:03:07;;;;;;;9.48;6.90;;;25.60;99.90;;;;;;5040211;28;20045;-74
2023/08/18 11:05:33;;;;;;;9.70;8.73;;;25.70;99.90;;;;;;5032266;28;20650;-73
2023/08/18 11:08:01;;;;;;;22.85;20.05;;;25.70;99.90;;;;;;5031649;28;20025;-72
2023/08/18 11:10:27;;;;;;;13.65;11.60;;;25.90;99.90;;;;;;5036116;28;20077;-73
2023/08/18 11:12:54;;;;;;;15.10;13.63;;;26.00;99.90;;;;;;5047859;28;20491;-73
2023/08/18 11:15:22;;;;;;;12.10;9.20;;;26.10;99.90;;;;;;5031934;28;20025;-73
2023/08/18 11:17:48;;;;;;;13.13;9.23;;;26.20;99.90;;;;;;5040051;28;20123;-73
2023/08/18 11:20:14;;;;;;;10.18;7.05;;;26.30;99.90;;;;;;5036883;28;20110;-72
2023/08/18 11:22:41;;;;;;;10.25;8.20;;;26.30;99.90;;;;;;5030663;28;20173;-73
2023/08/18 11:25:11;;;;;;;8.65;7.85;;;26.40;99.90;;;;;;5028527;28;20037;-73
2023/08/18 11:27:40;;;;;;;9.50;8.70;;;26.60;99.90;;;;;;5049407;28;20051;-73
2023/08/18 11:30:07;;;;;;;12.82;11.00;;;26.60;99.90;;;;;;5039008;28;20022;-73
2023/08/18 11:32:33;;;;;;;19.63;15.80;;;26.60;99.90;;;;;;5030939;28;20029;-75
2023/08/18 11:34:59;;;;;;;11.88;9.52;;;26.70;99.90;;;;;;5030989;28;20549;-74
2023/08/18 11:37:27;;;;;;;10.88;9.88;;;26.90;99.90;;;;;;5032259;28;20377;-74
2023/08/18 11:39:53;;;;;;;22.52;19.65;;;26.90;99.90;;;;;;5042699;28;20429;-73
2023/08/18 11:42:20;;;;;;;9.82;8.95;;;27.00;99.90;;;;;;5026194;28;20108;-74
2023/08/18 11:44:49;;;;;;;8.93;8.07;;;26.90;99.90;;;;;;5031075;28;20029;-74
2023/08/18 11:47:18;;;;;;;11.63;8.93;;;26.90;99.90;;;;;;5030715;28;20111;-72
2023/08/18 11:49:45;;;;;;;9.45;8.48;;;27.00;99.90;;;;;;5032667;28;20459;-72
2023/08/18 11:52:10;;;;;;;9.52;8.60;;;27.00;99.90;;;;;;5028043;28;20021;-73
2023/08/18 11:54:38;;;;;;;13.07;9.07;;;27.00;99.90;;;;;;5038287;28;20029;-72
2023/08/18 11:57:05;;;;;;;12.90;11.32;;;27.10;99.90;;;;;;5037462;28;20025;-73
2023/08/18 11:59:31;;;;;;;21.23;18.45;;;27.10;99.90;;;;;;5038655;28;20038;-73
2023/08/18 12:02:04;;;;;;;9.52;8.52;;;27.20;99.90;;;;;;5029415;28;20461;-73
2023/08/18 12:04:31;;;;;;;9.00;8.07;;;27.30;99.90;;;;;;5031888;28;20025;-74
2023/08/18 12:06:57;;;;;;;11.20;8.88;;;27.50;99.90;;;;;;5030755;28;20025;-74
2023/08/18 12:09:24;;;;;;;10.98;8.73;;;27.60;99.90;;;;;;5027834;28;20017;-72
2023/08/18 12:11:50;;;;;;;8.80;7.88;;;27.70;99.90;;;;;;5032757;28;20021;-73
2023/08/18 12:14:17;;;;;;;9.52;8.52;;;27.80;99.70;;;;;;5034859;28;20035;-72
2023/08/18 12:16:43;;;;;;;8.10;7.40;;;27.80;99.90;;;;;;5027363;28;20029;-72
2023/08/18 12:19:10;;;;;;;12.27;10.40;;;27.90;99.90;;;;;;5029514;28;20025;-72
2023/08/18 12:21:39;;;;;;;10.85;9.73;;;27.90;99.80;;;;;;5027983;28;20021;-72
2023/08/18 12:24:06;;;;;;;9.27;8.38;;;28.00;99.90;;;;;;5029495;28;20033;-71
2023/08/18 12:26:32;;;;;;;10.07;8.38;;;28.10;99.90;;;;;;5028322;28;20472;-71